createdAt,value
2023-02-01T00:00:26.444Z,17.98
2023-02-01T00:01:26.446Z,18.01
2023-02-01T00:02:26.488Z,17.86
2023-02-01T00:03:26.490Z,18.05
2023-02-01T00:04:26.477Z,18.01
2023-02-01T00:05:26.496Z,17.81
2023-02-01T00:06:26.514Z,17.98
2023-02-01T00:07:26.515Z,17.92
2023-02-01T00:08:26.523Z,17.95
2023-02-01T00:09:26.617Z,18.02
2023-02-01T00:10:26.562Z,17.96
2023-02-01T00:11:26.559Z,17.91
2023-02-01T00:12:26.576Z,17.79
2023-02-01T00:13:26.593Z,17.91
2023-02-01T00:14:26.606Z,17.97
2023-02-01T00:15:26.596Z,18.00
2023-02-01T00:16:26.604Z,17.99
2023-02-01T00:17:26.609Z,17.99
2023-02-01T00:18:26.631Z,17.94
2023-02-01T00:19:26.634Z,17.92
2023-02-01T00:20:26.646Z,17.97
2023-02-01T00:21:26.661Z,17.99
2023-02-01T00:22:26.677Z,17.96
2023-02-01T00:23:26.707Z,17.86
2023-02-01T00:24:26.701Z,17.90
2023-02-01T00:25:26.730Z,18.02
2023-02-01T00:26:26.764Z,17.88
2023-02-01T00:27:26.758Z,18.05
2023-02-01T00:28:26.782Z,17.95
2023-02-01T00:29:26.779Z,17.95
2023-02-01T00:30:26.802Z,17.96
2023-02-01T00:31:29.342Z,17.97
2023-02-01T00:32:26.829Z,17.90
2023-02-01T00:33:26.857Z,17.97
2023-02-01T00:34:26.852Z,18.04
2023-02-01T00:35:26.871Z,17.92
2023-02-01T00:36:26.898Z,18.05
2023-02-01T00:37:26.921Z,17.88
2023-02-01T00:38:26.944Z,17.99
2023-02-01T00:39:26.942Z,17.91
2023-02-01T00:40:26.961Z,17.79
2023-02-01T00:41:26.983Z,17.91
2023-02-01T00:42:27.008Z,17.93
2023-02-01T00:43:27.020Z,17.87
2023-02-01T00:44:27.027Z,17.93
2023-02-01T00:45:27.063Z,17.97
2023-02-01T00:46:27.098Z,17.91
2023-02-01T00:47:27.068Z,17.97
2023-02-01T00:48:27.096Z,17.91
2023-02-01T00:49:27.114Z,17.97
2023-02-01T00:50:27.110Z,17.75
2023-02-01T00:51:27.174Z,17.99
2023-02-01T00:52:27.139Z,17.96
2023-02-01T00:53:27.155Z,17.90
2023-02-01T00:54:27.171Z,17.91
2023-02-01T00:55:27.197Z,17.93
2023-02-01T00:56:27.207Z,17.93
2023-02-01T00:57:27.220Z,17.99
2023-02-01T00:58:27.242Z,17.99
2023-02-01T00:59:27.249Z,17.87
2023-02-01T01:00:27.334Z,17.94
2023-02-01T01:01:27.297Z,18.00
2023-02-01T01:02:27.339Z,17.84
2023-02-01T01:03:27.323Z,17.79
2023-02-01T01:04:27.337Z,17.81
2023-02-01T01:05:27.356Z,17.99
2023-02-01T01:06:27.371Z,17.69
2023-02-01T01:07:27.382Z,17.82
2023-02-01T01:08:27.395Z,17.99
2023-02-01T01:09:27.430Z,17.97
2023-02-01T01:10:27.431Z,17.96
2023-02-01T01:11:27.442Z,17.96
2023-02-01T01:12:27.475Z,18.05
2023-02-01T01:13:27.492Z,17.84
2023-02-01T01:14:27.508Z,17.85
2023-02-01T01:15:27.514Z,17.96
2023-02-01T01:16:27.575Z,17.88
2023-02-01T01:17:27.555Z,17.97
2023-02-01T01:18:27.580Z,18.00
2023-02-01T01:19:27.593Z,17.97
2023-02-01T01:20:27.616Z,17.96
2023-02-01T01:21:27.674Z,18.03
2023-02-01T01:22:27.672Z,17.94
2023-02-01T01:23:27.715Z,18.00
2023-02-01T01:24:27.695Z,17.93
2023-02-01T01:25:27.712Z,17.85
2023-02-01T01:26:27.803Z,17.97
2023-02-01T01:27:27.804Z,17.87
2023-02-01T01:28:27.769Z,17.79
2023-02-01T01:29:27.828Z,17.96
2023-02-01T01:30:27.874Z,18.03
2023-02-01T01:31:27.869Z,18.00
2023-02-01T01:32:27.846Z,17.99
2023-02-01T01:33:27.854Z,17.97
2023-02-01T01:34:27.862Z,18.00
2023-02-01T01:35:27.880Z,17.88
2023-02-01T01:36:27.903Z,18.00
2023-02-01T01:37:27.910Z,17.93
2023-02-01T01:38:27.923Z,17.97
2023-02-01T01:39:27.944Z,17.82
2023-02-01T01:40:27.956Z,17.97
2023-02-01T01:41:27.976Z,17.87
2023-02-01T01:42:27.982Z,17.84
2023-02-01T01:43:28.000Z,17.94
2023-02-01T01:44:28.004Z,18.03
2023-02-01T01:45:28.036Z,17.87
2023-02-01T01:46:28.070Z,17.87
2023-02-01T01:47:28.053Z,17.91
2023-02-01T01:48:28.060Z,18.03
2023-02-01T01:49:28.097Z,17.91
2023-02-01T01:50:28.089Z,17.73
2023-02-01T01:51:28.091Z,17.88
2023-02-01T01:52:28.138Z,17.97
2023-02-01T01:53:28.137Z,18.03
2023-02-01T01:54:28.130Z,17.99
2023-02-01T01:55:28.157Z,17.70
2023-02-01T01:56:28.163Z,18.00
2023-02-01T01:57:28.167Z,17.96
2023-02-01T01:58:28.168Z,17.91
2023-02-01T01:59:28.201Z,17.94
2023-02-01T02:00:28.226Z,17.88
2023-02-01T02:01:28.209Z,17.99
2023-02-01T02:02:28.218Z,18.05
2023-02-01T02:03:28.245Z,18.00
2023-02-01T02:04:28.247Z,17.96
2023-02-01T02:05:28.259Z,17.85
2023-02-01T02:06:28.272Z,17.76
2023-02-01T02:07:28.311Z,17.88
2023-02-01T02:08:28.305Z,17.91
2023-02-01T02:09:28.317Z,17.91
2023-02-01T02:10:28.326Z,17.99
2023-02-01T02:11:28.337Z,17.84
2023-02-01T02:12:28.372Z,17.99
2023-02-01T02:13:28.380Z,17.85
2023-02-01T02:14:28.381Z,17.96
2023-02-01T02:15:28.395Z,17.88
2023-02-01T02:16:28.459Z,17.88
2023-02-01T02:17:28.413Z,17.85
2023-02-01T02:18:28.431Z,17.67
2023-02-01T02:19:28.444Z,17.87
2023-02-01T02:20:28.459Z,18.03
2023-02-01T02:21:28.466Z,17.93
2023-02-01T02:22:28.480Z,18.06
2023-02-01T02:23:28.492Z,17.97
2023-02-01T02:24:28.485Z,18.03
2023-02-01T02:25:28.509Z,17.88
2023-02-01T02:26:28.537Z,17.87
2023-02-01T02:27:28.539Z,17.97
2023-02-01T02:28:28.540Z,17.96
2023-02-01T02:29:28.553Z,17.75
2023-02-01T02:30:28.589Z,17.85
2023-02-01T02:31:28.627Z,17.78
2023-02-01T02:32:28.594Z,17.91
2023-02-01T02:33:28.600Z,17.97
2023-02-01T02:34:28.600Z,17.93
2023-02-01T02:35:28.599Z,17.97
2023-02-01T02:36:28.611Z,17.96
2023-02-01T02:37:28.630Z,17.90
2023-02-01T02:38:28.637Z,17.87
2023-02-01T02:39:28.645Z,17.92
2023-02-01T02:40:28.653Z,17.87
2023-02-01T02:41:28.646Z,17.99
2023-02-01T02:42:28.668Z,17.96
2023-02-01T02:43:28.664Z,17.99
2023-02-01T02:44:28.658Z,17.96
2023-02-01T02:45:28.759Z,17.81
2023-02-01T02:46:28.665Z,17.90
2023-02-01T02:47:28.813Z,17.96
2023-02-01T02:48:28.662Z,17.94
2023-02-01T02:49:28.670Z,17.96
2023-02-01T02:50:28.665Z,17.91
2023-02-01T02:51:28.673Z,17.90
2023-02-01T02:52:28.676Z,17.93
2023-02-01T02:53:28.700Z,17.91
2023-02-01T02:54:28.701Z,17.94
2023-02-01T02:55:28.703Z,17.94
2023-02-01T02:56:28.702Z,17.64
2023-02-01T02:57:28.705Z,17.87
2023-02-01T02:58:28.720Z,17.96
2023-02-01T02:59:28.724Z,17.75
2023-02-01T03:00:28.736Z,17.93
2023-02-01T03:01:28.761Z,17.89
2023-02-01T03:02:28.771Z,17.73
2023-02-01T03:03:28.755Z,17.79
2023-02-01T03:04:28.754Z,17.85
2023-02-01T03:05:28.769Z,17.82
2023-02-01T03:06:28.780Z,17.78
2023-02-01T03:07:28.790Z,17.66
2023-02-01T03:08:28.812Z,18.00
2023-02-01T03:09:28.816Z,17.82
2023-02-01T03:10:28.832Z,17.90
2023-02-01T03:11:28.833Z,17.74
2023-02-01T03:12:28.848Z,17.94
2023-02-01T03:13:28.878Z,17.88
2023-02-01T03:14:28.868Z,17.73
2023-02-01T03:15:28.881Z,17.94
2023-02-01T03:16:28.909Z,17.91
2023-02-01T03:17:28.904Z,17.99
2023-02-01T03:18:28.908Z,17.72
2023-02-01T03:19:28.923Z,17.87
2023-02-01T03:20:28.927Z,17.97
2023-02-01T03:21:28.937Z,17.93
2023-02-01T03:22:28.941Z,17.96
2023-02-01T03:23:28.958Z,17.94
2023-02-01T03:24:28.958Z,17.96
2023-02-01T03:25:28.975Z,17.90
2023-02-01T03:26:29.003Z,18.01
2023-02-01T03:27:28.989Z,17.84
2023-02-01T03:28:28.990Z,17.94
2023-02-01T03:29:29.007Z,18.00
2023-02-01T03:30:29.026Z,17.87
2023-02-01T03:31:29.065Z,17.90
2023-02-01T03:32:29.035Z,17.84
2023-02-01T03:33:29.041Z,17.94
2023-02-01T03:34:29.055Z,17.94
2023-02-01T03:35:29.072Z,17.99
2023-02-01T03:36:29.076Z,18.00
2023-02-01T03:37:29.095Z,17.79
2023-02-01T03:38:29.091Z,17.88
2023-02-01T03:39:29.118Z,17.72
2023-02-01T03:40:29.106Z,17.90
2023-02-01T03:41:29.133Z,17.99
2023-02-01T03:42:29.125Z,17.97
2023-02-01T03:43:29.143Z,17.78
2023-02-01T03:44:29.158Z,17.88
2023-02-01T03:45:29.188Z,17.76
2023-02-01T03:46:29.191Z,17.91
2023-02-01T03:47:29.195Z,17.94
2023-02-01T03:48:29.240Z,17.84
2023-02-01T03:49:29.229Z,17.78
2023-02-01T03:50:29.261Z,17.93
2023-02-01T03:51:29.265Z,17.87
2023-02-01T03:52:29.277Z,17.73
2023-02-01T03:53:29.287Z,17.76
2023-02-01T03:54:29.310Z,17.78
2023-02-01T03:55:29.317Z,17.91
2023-02-01T03:56:29.351Z,17.93
2023-02-01T03:57:29.356Z,17.91
2023-02-01T03:58:29.359Z,17.92
2023-02-01T03:59:29.366Z,17.87
2023-02-01T04:00:29.380Z,17.82
2023-02-01T04:01:29.446Z,17.67
2023-02-01T04:02:29.472Z,17.79
2023-02-01T04:03:29.418Z,17.94
2023-02-01T04:04:29.436Z,17.93
2023-02-01T04:05:29.439Z,17.97
2023-02-01T04:06:29.470Z,17.88
2023-02-01T04:07:29.457Z,17.90
2023-02-01T04:08:29.467Z,17.94
2023-02-01T04:09:29.499Z,17.97
2023-02-01T04:10:29.504Z,17.93
2023-02-01T04:11:29.526Z,17.72
2023-02-01T04:12:29.535Z,17.88
2023-02-01T04:13:29.547Z,17.91
2023-02-01T04:14:29.572Z,17.97
2023-02-01T04:15:29.589Z,17.90
2023-02-01T04:16:29.630Z,17.97
2023-02-01T04:17:29.611Z,17.63
2023-02-01T04:18:29.623Z,17.80
2023-02-01T04:19:29.681Z,17.89
2023-02-01T04:20:29.659Z,17.82
2023-02-01T04:21:29.703Z,17.94
2023-02-01T04:22:29.722Z,17.89
2023-02-01T04:23:29.701Z,17.97
2023-02-01T04:24:29.726Z,17.86
2023-02-01T04:25:29.738Z,17.78
2023-02-01T04:26:29.882Z,17.91
2023-02-01T04:27:29.763Z,17.80
2023-02-01T04:28:29.775Z,17.86
2023-02-01T04:29:29.811Z,17.88
2023-02-01T04:30:29.825Z,17.91
2023-02-01T04:31:29.930Z,17.97
2023-02-01T04:32:29.840Z,17.85
2023-02-01T04:33:29.863Z,17.72
2023-02-01T04:34:29.880Z,17.77
2023-02-01T04:35:29.894Z,17.91
2023-02-01T04:36:29.904Z,17.70
2023-02-01T04:37:29.918Z,17.91
2023-02-01T04:38:29.930Z,17.85
2023-02-01T04:39:29.935Z,17.91
2023-02-01T04:40:29.954Z,17.67
2023-02-01T04:41:29.979Z,17.74
2023-02-01T04:42:29.967Z,17.83
2023-02-01T04:43:29.975Z,17.79
2023-02-01T04:44:29.980Z,17.95
2023-02-01T04:45:30.007Z,17.97
2023-02-01T04:46:30.018Z,17.80
2023-02-01T04:47:30.017Z,17.92
2023-02-01T04:48:30.033Z,17.77
2023-02-01T04:49:30.036Z,17.77
2023-02-01T04:50:30.050Z,17.92
2023-02-01T04:51:30.047Z,17.80
2023-02-01T04:52:30.076Z,17.92
2023-02-01T04:53:30.077Z,17.94
2023-02-01T04:54:30.082Z,17.82
2023-02-01T04:55:30.093Z,17.86
2023-02-01T04:56:30.116Z,17.92
2023-02-01T04:57:30.117Z,17.86
2023-02-01T04:58:30.132Z,17.72
2023-02-01T04:59:30.128Z,17.95
2023-02-01T05:00:30.141Z,17.91
2023-02-01T05:01:30.211Z,17.91
2023-02-01T05:02:30.161Z,17.94
2023-02-01T05:03:30.161Z,17.64
2023-02-01T05:04:30.227Z,17.67
2023-02-01T05:05:30.182Z,17.89
2023-02-01T05:06:30.183Z,17.88
2023-02-01T05:07:30.186Z,17.76
2023-02-01T05:08:30.200Z,17.86
2023-02-01T05:09:30.222Z,17.85
2023-02-01T05:10:30.227Z,17.90
2023-02-01T05:11:30.223Z,17.98
2023-02-01T05:12:30.229Z,17.92
2023-02-01T05:13:30.260Z,17.97
2023-02-01T05:14:30.263Z,17.80
2023-02-01T05:15:30.334Z,17.85
2023-02-01T05:16:30.287Z,17.73
2023-02-01T05:17:30.288Z,17.86
2023-02-01T05:18:30.304Z,17.72
2023-02-01T05:19:30.327Z,17.96
2023-02-01T05:20:30.330Z,17.83
2023-02-01T05:21:30.358Z,17.82
2023-02-01T05:22:30.362Z,17.92
2023-02-01T05:23:30.401Z,17.76
2023-02-01T05:24:30.403Z,17.86
2023-02-01T05:25:30.441Z,17.86
2023-02-01T05:26:30.501Z,17.82
2023-02-01T05:27:30.468Z,17.89
2023-02-01T05:28:30.484Z,17.80
2023-02-01T05:29:30.490Z,17.86
2023-02-01T05:30:30.519Z,17.94
2023-02-01T05:31:30.635Z,17.82
2023-02-01T05:32:30.580Z,17.81
2023-02-01T05:33:30.583Z,17.92
2023-02-01T05:34:30.663Z,17.88
2023-02-01T05:35:30.603Z,17.85
2023-02-01T05:36:30.620Z,17.77
2023-02-01T05:37:30.663Z,17.89
2023-02-01T05:38:30.671Z,17.90
2023-02-01T05:44:30.779Z,17.89
2023-02-01T05:45:30.833Z,17.82
2023-02-01T05:46:30.876Z,17.86
2023-02-01T05:47:30.836Z,17.98
2023-02-01T05:48:30.873Z,17.95
2023-02-01T05:49:30.892Z,17.96
2023-02-01T05:50:30.908Z,17.96
2023-02-01T05:51:30.924Z,17.95
2023-02-01T05:52:30.936Z,17.90
2023-02-01T05:53:30.944Z,18.02
2023-02-01T05:54:30.968Z,17.74
2023-02-01T05:55:30.992Z,17.82
2023-02-01T05:56:31.012Z,17.92
2023-02-01T05:57:31.027Z,17.93
2023-02-01T05:58:31.045Z,17.90
2023-02-01T05:59:31.069Z,17.95
2023-02-01T06:53:31.982Z,18.56
2023-02-01T06:54:32.015Z,18.56
2023-02-01T06:55:32.018Z,18.49
2023-02-01T06:56:32.047Z,18.42
2023-02-01T06:57:32.058Z,18.41
2023-02-01T06:58:32.062Z,18.37
2023-02-01T06:59:32.087Z,18.42
2023-02-01T07:00:32.148Z,18.37
2023-02-01T07:01:32.132Z,18.46
2023-02-01T07:02:32.171Z,18.44
2023-02-01T07:03:32.198Z,18.44
2023-02-01T07:04:32.153Z,18.35
2023-02-01T07:05:32.170Z,18.37
2023-02-01T07:06:32.197Z,18.32
2023-02-01T07:07:32.223Z,18.37
2023-02-01T07:08:32.244Z,18.44
2023-02-01T07:09:32.249Z,18.49
2023-02-01T07:10:32.263Z,18.40
2023-02-01T07:11:32.279Z,18.10
2023-02-01T07:12:32.306Z,18.34
2023-02-01T07:13:32.318Z,18.37
2023-02-01T07:14:32.342Z,18.38
2023-02-01T07:15:32.356Z,18.38
2023-02-01T07:16:32.470Z,18.41
2023-02-01T07:17:32.424Z,18.35
2023-02-01T07:18:32.435Z,18.34
2023-02-01T07:19:32.441Z,18.43
2023-02-01T07:20:32.469Z,18.35
2023-02-01T07:21:32.515Z,18.38
2023-02-01T07:22:32.519Z,18.29
2023-02-01T07:23:32.554Z,18.40
2023-02-01T07:24:32.575Z,18.40
2023-02-01T07:25:32.587Z,18.44
2023-02-01T07:26:32.643Z,18.34
2023-02-01T07:27:32.612Z,18.44
2023-02-01T07:28:32.629Z,18.40
2023-02-01T07:29:32.645Z,18.25
2023-02-01T07:30:32.695Z,18.27
2023-02-01T07:31:32.684Z,18.29
2023-02-01T07:32:32.725Z,18.32
2023-02-01T07:33:32.716Z,18.28
2023-02-01T07:34:32.759Z,18.32
2023-02-01T07:35:32.771Z,18.32
2023-02-01T07:36:32.776Z,18.25
2023-02-01T07:37:32.799Z,18.19
2023-02-01T07:38:32.811Z,18.16
2023-02-01T07:39:32.847Z,18.22
2023-02-01T07:40:32.840Z,18.32
2023-02-01T07:41:32.852Z,18.23
2023-02-01T07:42:32.884Z,18.21
2023-02-01T07:43:32.897Z,18.19
2023-02-01T07:44:32.930Z,18.17
2023-02-01T07:45:34.781Z,18.13
2023-02-01T08:20:33.672Z,17.89
2023-02-01T08:21:33.668Z,18.07
2023-02-01T08:22:33.678Z,18.09
2023-02-01T08:23:33.705Z,18.02
2023-02-01T08:24:33.713Z,17.98
2023-02-01T08:25:33.722Z,17.86
2023-02-01T08:26:33.800Z,17.95
2023-02-01T08:27:33.747Z,18.06
2023-02-01T08:28:33.744Z,17.98
2023-02-01T08:29:33.788Z,17.97
2023-02-01T08:30:33.793Z,18.00
2023-02-01T08:31:33.841Z,17.88
2023-02-01T08:32:33.796Z,17.99
2023-02-01T08:33:33.827Z,17.99
2023-02-01T08:34:35.744Z,17.94
2023-02-01T08:35:43.182Z,18.00
2023-02-01T08:36:34.847Z,17.91
2023-02-01T08:37:33.857Z,17.91
2023-02-01T08:38:33.869Z,17.83
2023-02-01T08:39:33.885Z,17.85
2023-02-01T08:40:33.926Z,17.81
2023-02-01T08:41:33.907Z,17.86
2023-02-01T08:42:33.934Z,17.93
2023-02-01T08:43:33.946Z,17.84
2023-02-01T08:44:33.949Z,17.86
2023-02-01T08:45:33.948Z,17.75
2023-02-01T08:46:33.983Z,17.86
2023-02-01T08:47:33.974Z,17.79
2023-02-01T08:48:33.986Z,17.88
2023-02-01T08:49:33.991Z,17.85
2023-02-01T08:50:34.016Z,17.82
2023-02-01T08:51:34.051Z,17.88
2023-02-01T08:52:34.026Z,17.83
2023-02-01T08:53:34.056Z,17.74
2023-02-01T08:54:34.069Z,17.82
2023-02-01T08:55:34.063Z,17.86
2023-02-01T08:56:34.187Z,17.80
2023-02-01T08:57:34.102Z,17.81
2023-02-01T08:58:34.102Z,17.84
2023-02-01T09:00:34.103Z,17.70
2023-02-01T09:01:34.168Z,17.75
2023-02-01T09:02:34.137Z,17.69
2023-02-01T09:03:34.192Z,17.64
2023-02-01T09:06:34.150Z,17.56
2023-02-01T09:41:34.478Z,17.39
2023-02-01T09:42:34.436Z,17.35
2023-02-01T09:43:34.442Z,17.56
2023-02-01T09:44:43.752Z,17.50
2023-02-01T09:45:35.449Z,17.37
2023-02-01T09:46:34.565Z,17.45
2023-02-01T09:47:34.471Z,17.52
2023-02-01T09:48:34.492Z,17.52
2023-02-01T09:49:34.483Z,17.49
2023-02-01T09:50:34.483Z,17.49
2023-02-01T09:51:34.505Z,17.48
2023-02-01T09:52:34.514Z,17.55
2023-02-01T09:53:34.521Z,17.60
2023-02-01T09:54:34.530Z,17.49
2023-02-01T09:56:34.548Z,17.57
2023-02-01T09:57:34.540Z,17.57
2023-02-01T09:58:34.565Z,17.58
2023-02-01T09:59:34.567Z,17.64
2023-02-01T10:00:34.575Z,17.66
2023-02-01T10:01:34.622Z,17.72
2023-02-01T10:02:34.615Z,17.69
2023-02-01T10:03:34.686Z,17.76
2023-02-01T10:04:34.629Z,17.70
2023-02-01T10:05:34.613Z,17.75
2023-02-01T10:06:34.614Z,17.75
2023-02-01T10:07:34.637Z,17.76
2023-02-01T10:08:34.651Z,17.82
2023-02-01T10:09:34.679Z,17.82
2023-02-01T10:10:34.683Z,17.84
2023-02-01T10:11:34.695Z,17.81
2023-02-01T10:12:34.722Z,17.85
2023-02-01T10:13:34.757Z,17.88
2023-02-01T10:14:34.761Z,17.94
2023-02-01T10:15:34.785Z,17.93
2023-02-01T10:16:34.861Z,17.94
2023-02-01T10:17:34.813Z,17.90
2023-02-01T10:18:34.816Z,17.91
2023-02-01T10:19:34.831Z,18.02
2023-02-01T10:20:34.835Z,17.99
2023-02-01T10:21:34.841Z,18.00
2023-02-01T10:22:56.039Z,18.00
2023-02-01T10:23:35.879Z,18.06
2023-02-01T10:24:34.874Z,17.99
2023-02-01T10:25:34.869Z,18.05
2023-02-01T10:26:34.901Z,18.06
2023-02-01T10:27:34.885Z,18.02
2023-02-01T10:28:34.886Z,18.03
2023-02-01T10:29:34.893Z,18.02
2023-02-01T10:30:35.750Z,18.00
2023-02-01T10:31:35.044Z,18.08
2023-02-01T10:32:34.922Z,18.15
2023-02-01T10:33:34.932Z,18.08
2023-02-01T10:34:34.926Z,18.11
2023-02-01T10:35:34.937Z,18.14
2023-02-01T10:36:34.932Z,18.09
2023-02-01T10:37:34.948Z,18.11
2023-02-01T10:38:34.951Z,18.11
2023-02-01T10:39:34.973Z,18.14
2023-02-01T10:40:34.967Z,18.12
2023-02-01T10:41:34.981Z,18.08
2023-02-01T10:42:34.975Z,18.05
2023-02-01T10:43:34.994Z,18.11
2023-02-01T10:44:34.976Z,18.06
2023-02-01T10:45:34.986Z,18.02
2023-02-01T10:46:35.063Z,17.96
2023-02-01T10:47:35.010Z,17.97
2023-02-01T10:48:35.018Z,18.00
2023-02-01T10:49:35.036Z,17.99
2023-02-01T10:50:35.031Z,18.00
2023-02-01T10:51:35.034Z,17.90
2023-02-01T10:52:35.052Z,17.96
2023-02-01T10:53:35.056Z,17.84
2023-02-01T10:54:35.072Z,17.93
2023-02-01T10:55:35.089Z,17.91
2023-02-01T10:56:35.061Z,17.96
2023-02-01T10:57:35.079Z,17.93
2023-02-01T10:58:35.075Z,17.94
2023-02-01T10:59:35.104Z,17.96
2023-02-01T11:00:35.105Z,17.90
2023-02-01T11:01:35.147Z,17.90
2023-02-01T11:02:35.168Z,17.87
2023-02-01T11:03:35.150Z,17.88
2023-02-01T11:04:35.125Z,17.84
2023-02-01T11:05:35.145Z,17.81
2023-02-01T11:06:35.162Z,17.90
2023-02-01T11:07:35.153Z,17.76
2023-02-01T11:08:35.152Z,17.87
2023-02-01T11:09:35.154Z,17.82
2023-02-01T11:10:35.165Z,17.83
2023-02-01T11:11:35.169Z,17.79
2023-02-01T11:12:35.195Z,17.75
2023-02-01T11:13:35.203Z,17.87
2023-02-01T11:14:35.206Z,17.78
2023-02-01T11:15:35.203Z,17.88
2023-02-01T11:22:35.254Z,17.85
2023-02-01T12:28:36.201Z,17.40
2023-02-01T12:29:36.205Z,17.52
2023-02-01T12:30:36.241Z,17.49
2023-02-01T12:31:36.295Z,17.49
2023-02-01T12:32:36.250Z,17.55
2023-02-01T12:33:36.275Z,17.64
2023-02-01T12:34:36.278Z,17.56
2023-02-01T12:35:36.329Z,17.60
2023-02-01T12:36:36.309Z,17.58
2023-02-01T12:37:36.301Z,17.61
2023-02-01T12:38:36.324Z,17.61
2023-02-01T12:39:36.343Z,17.61
2023-02-01T12:40:36.343Z,17.66
2023-02-01T12:41:36.357Z,17.63
2023-02-01T12:42:36.358Z,17.67
2023-02-01T12:43:36.365Z,17.70
2023-02-01T12:44:36.373Z,17.70
2023-02-01T12:45:36.435Z,17.73
2023-02-01T12:46:36.396Z,17.76
2023-02-01T12:47:36.425Z,17.79
2023-02-01T12:48:36.421Z,17.82
2023-02-01T12:49:36.448Z,17.81
2023-02-01T12:50:36.446Z,17.76
2023-02-01T12:51:36.461Z,17.84
2023-02-01T12:52:36.468Z,17.82
2023-02-01T12:53:36.484Z,17.88
2023-02-01T12:54:36.522Z,17.81
2023-02-01T12:55:36.508Z,17.85
2023-02-01T12:56:36.520Z,17.83
2023-02-01T12:57:36.526Z,17.96
2023-02-01T12:58:36.538Z,17.93
2023-02-01T12:59:36.560Z,17.96
2023-02-01T13:00:36.558Z,17.90
2023-02-01T13:01:36.578Z,17.87
2023-02-01T13:02:36.631Z,17.93
2023-02-01T13:03:36.619Z,17.87
2023-02-01T13:04:36.621Z,17.90
2023-02-01T13:05:36.638Z,17.90
2023-02-01T13:06:36.646Z,17.93
2023-02-01T13:07:36.673Z,17.87
2023-02-01T13:08:36.658Z,17.87
2023-02-01T13:09:36.678Z,17.85
2023-02-01T13:10:36.680Z,17.88
2023-02-01T13:11:36.704Z,17.81
2023-02-01T13:12:36.717Z,17.81
2023-02-01T13:13:36.716Z,17.88
2023-02-01T13:14:36.735Z,17.91
2023-02-01T13:15:36.738Z,17.87
2023-02-01T13:34:36.943Z,17.87
2023-02-01T16:08:38.774Z,17.85
2023-02-01T16:09:38.769Z,17.85
2023-02-01T16:10:38.830Z,17.73
2023-02-01T16:11:38.780Z,17.73
2023-02-01T16:12:38.787Z,17.80
2023-02-01T16:13:38.819Z,17.76
2023-02-01T16:14:38.825Z,17.76
2023-02-01T16:15:38.863Z,17.82
2023-02-01T16:16:38.867Z,17.83
2023-02-01T16:17:38.885Z,17.88
2023-02-01T16:18:38.901Z,17.86
2023-02-01T16:19:38.909Z,17.89
2023-02-01T16:20:38.927Z,17.85
2023-02-01T16:21:38.931Z,17.79
2023-02-01T16:22:38.983Z,17.80
2023-02-01T16:23:38.964Z,17.77
2023-02-01T16:24:38.986Z,17.82
2023-02-01T16:25:39.007Z,17.74
2023-02-01T16:26:39.048Z,17.91
2023-02-01T16:27:39.034Z,17.74
2023-02-01T16:28:39.054Z,17.89
2023-02-01T16:29:39.783Z,17.80
2023-02-01T16:30:39.123Z,17.82
2023-02-01T16:31:39.119Z,17.92
2023-02-01T16:32:39.119Z,17.76
2023-02-01T16:33:39.131Z,17.83
2023-02-01T16:34:39.160Z,17.88
2023-02-01T16:35:39.165Z,17.88
2023-02-01T16:36:40.898Z,17.86
2023-02-01T16:37:39.201Z,17.90
2023-02-01T16:38:39.224Z,17.85
2023-02-01T16:39:39.253Z,17.88
2023-02-01T16:40:39.264Z,17.86
2023-02-01T16:41:39.269Z,17.86
2023-02-01T16:42:39.309Z,17.89
2023-02-01T16:43:39.306Z,17.85
2023-02-01T16:44:39.352Z,17.86
2023-02-01T16:45:39.456Z,17.83
2023-02-01T16:46:39.517Z,17.74
2023-02-01T16:47:39.588Z,17.83
2023-02-01T16:48:39.668Z,17.88
2023-02-01T16:49:39.743Z,17.88
2023-02-01T16:50:39.833Z,17.84
2023-02-01T16:51:39.907Z,17.80
2023-02-01T16:52:41.277Z,17.89
2023-02-01T16:53:53.521Z,17.86
2023-02-01T16:54:40.015Z,17.84
2023-02-01T16:55:40.041Z,17.86
2023-02-01T16:56:40.104Z,17.80
2023-02-01T16:57:40.064Z,17.89
2023-02-01T16:58:40.081Z,17.86
2023-02-01T16:59:40.094Z,17.88
2023-02-01T17:00:40.162Z,17.78
2023-02-01T17:01:40.121Z,17.78
2023-02-01T17:02:41.175Z,17.89
2023-02-01T17:03:40.164Z,17.93
2023-02-01T17:04:40.286Z,17.81
2023-02-01T17:05:40.201Z,17.89
2023-02-01T17:06:40.211Z,17.83
2023-02-01T17:07:40.246Z,17.84
2023-02-01T17:08:40.251Z,17.81
2023-02-01T17:09:40.281Z,17.85
2023-02-01T17:10:40.279Z,17.89
2023-02-01T17:11:40.298Z,17.88
2023-02-01T17:12:40.306Z,17.89
2023-02-01T17:13:40.318Z,17.88
2023-02-01T17:25:40.544Z,17.93
2023-02-01T17:28:40.606Z,17.94
2023-02-01T17:37:40.762Z,17.90
2023-02-01T18:03:41.213Z,17.73
2023-02-01T18:04:41.219Z,17.96
2023-02-01T18:05:41.239Z,18.00
2023-02-01T18:06:41.242Z,17.96
2023-02-01T18:07:41.259Z,17.93
2023-02-01T18:08:41.275Z,17.84
2023-02-01T18:55:41.990Z,18.10
2023-02-01T18:56:42.001Z,18.09
2023-02-01T18:57:42.020Z,18.15
2023-02-01T18:58:42.050Z,18.13
2023-02-01T18:59:42.058Z,18.06
2023-02-01T19:00:42.079Z,18.04
2023-02-01T19:01:42.113Z,18.06
2023-02-01T19:02:42.100Z,18.09
2023-02-01T19:03:45.963Z,18.12
2023-02-01T19:04:43.142Z,18.12
2023-02-01T19:05:42.146Z,18.07
2023-02-01T19:06:42.144Z,17.97
2023-02-01T19:07:42.163Z,18.07
2023-02-01T19:08:42.174Z,18.09
2023-02-01T19:09:42.188Z,18.12
2023-02-01T19:10:42.196Z,18.07
2023-02-01T19:11:42.202Z,18.15
2023-02-01T19:12:42.223Z,18.06
2023-02-01T19:13:42.810Z,18.07
2023-02-01T19:14:42.243Z,18.04
2023-02-01T19:15:42.301Z,18.07
2023-02-01T19:16:42.267Z,17.96
2023-02-01T19:17:42.282Z,18.06
2023-02-01T19:18:42.301Z,18.10
2023-02-01T19:19:42.301Z,18.11
2023-02-01T19:20:42.315Z,18.06
2023-02-01T19:21:42.330Z,18.07
2023-02-01T19:22:42.343Z,18.03
2023-02-01T19:23:42.392Z,18.04
2023-02-01T19:24:42.365Z,18.15
2023-02-01T19:25:42.388Z,18.07
2023-02-01T19:26:42.450Z,18.09
2023-02-01T19:27:42.419Z,18.08
2023-02-01T19:28:42.418Z,18.16
2023-02-01T19:29:42.440Z,18.15
2023-02-01T19:30:42.461Z,17.97
2023-02-01T19:31:42.492Z,18.03
2023-02-01T19:32:42.470Z,18.11
2023-02-01T19:33:42.483Z,18.13
2023-02-01T19:34:42.483Z,18.14
2023-02-01T19:35:42.495Z,18.08
2023-02-01T19:36:42.810Z,18.13
2023-02-01T19:37:42.517Z,18.15
2023-02-01T19:38:42.529Z,18.12
2023-02-01T19:39:42.893Z,18.16
2023-02-01T19:40:42.553Z,18.08
2023-02-01T19:41:42.579Z,18.08
2023-02-01T19:42:42.590Z,18.21
2023-02-01T19:43:42.606Z,18.15
2023-02-01T19:44:42.613Z,18.08
2023-02-01T19:45:42.635Z,18.16
2023-02-01T19:46:42.692Z,18.14
2023-02-01T19:47:42.661Z,18.11
2023-02-01T19:48:42.689Z,18.16
2023-02-01T19:49:42.678Z,18.13
2023-02-01T19:50:42.700Z,18.10
2023-02-01T19:51:42.707Z,18.04
2023-02-01T19:52:42.748Z,18.20
2023-02-01T19:53:42.744Z,18.16
2023-02-01T19:54:42.775Z,18.20
2023-02-01T19:55:42.779Z,18.17
2023-02-01T19:56:42.788Z,18.16
2023-02-01T19:57:42.815Z,18.10
2023-02-01T19:58:42.830Z,18.20
2023-02-01T19:59:42.843Z,18.10
2023-02-01T20:00:41.999Z,18.07
2023-02-01T20:01:42.087Z,18.05
2023-02-01T20:02:42.026Z,18.13
2023-02-01T20:03:42.033Z,18.14
2023-02-01T20:04:42.066Z,18.14
2023-02-01T20:05:42.078Z,18.25
2023-02-01T20:06:42.101Z,18.20
2023-02-01T20:07:42.112Z,18.16
2023-02-01T20:08:42.188Z,18.13
2023-02-01T20:09:42.137Z,18.19
2023-02-01T20:10:42.152Z,18.16
2023-02-01T20:11:42.169Z,18.23
2023-02-01T20:12:42.185Z,18.19
2023-02-01T20:13:42.197Z,18.11
2023-02-01T20:14:42.237Z,18.14
2023-02-01T20:15:42.236Z,18.23
2023-02-01T20:16:42.247Z,18.22
2023-02-01T20:17:42.271Z,18.23
2023-02-01T20:18:42.281Z,18.19
2023-02-01T20:19:42.296Z,18.10
2023-02-01T20:20:42.300Z,18.20
2023-02-01T20:21:42.315Z,18.17
2023-02-01T20:22:42.336Z,18.25
2023-02-01T20:23:42.335Z,18.11
2023-02-01T20:24:42.351Z,18.20
2023-02-01T20:25:43.229Z,18.14
2023-02-01T20:26:43.326Z,18.23
2023-02-01T20:27:43.278Z,18.02
2023-02-01T20:28:43.276Z,18.19
2023-02-01T20:29:43.304Z,18.19
2023-02-01T20:30:43.315Z,18.14
2023-02-01T20:31:43.403Z,18.16
2023-02-01T20:32:43.363Z,18.22
2023-02-01T20:33:43.356Z,18.23
2023-02-01T20:34:43.363Z,18.26
2023-02-01T20:35:43.384Z,18.23
2023-02-01T20:36:43.400Z,18.22